Time;durP1;ratioP1;P1;durP2;ratioP2;P2;SDS_P1;SDS_P2;PMS_P1;PMS_P2;Temp;Humidity;BMP_temperature;BMP_pressure;BME280_temperature;BME280_humidity;BME280_pressure;Samples;Min_cycle;Max_cycle;Signal;HPM_P1;HPM_P2
2022/10/08 00:00:48;;;;;;;6.70;2.97;;;13.10;99.90;;;;;;4883089;29;20052;-86
2022/10/08 00:03:15;;;;;;;7.45;3.22;;;13.10;99.90;;;;;;4882753;29;20041;-86
2022/10/08 00:05:41;;;;;;;8.98;3.45;;;13.10;99.90;;;;;;4888489;29;20511;-86
2022/10/08 00:08:08;;;;;;;10.98;3.45;;;13.10;99.90;;;;;;4887552;29;20122;-85
2022/10/08 00:10:34;;;;;;;13.18;4.55;;;13.10;99.90;;;;;;4855740;29;20058;-86
2022/10/08 00:13:00;;;;;;;6.78;2.45;;;13.10;99.90;;;;;;4871249;29;20189;-85
2022/10/08 00:15:27;;;;;;;5.63;2.70;;;13.10;99.90;;;;;;4869231;29;20076;-85
2022/10/08 00:17:53;;;;;;;8.35;2.90;;;13.10;99.90;;;;;;4865598;29;20127;-86
2022/10/08 00:20:20;;;;;;;9.80;2.88;;;12.90;99.90;;;;;;4886310;29;20076;-86
2022/10/08 00:22:46;;;;;;;8.88;3.28;;;13.00;99.90;;;;;;4884938;29;20044;-86
2022/10/08 00:25:13;;;;;;;6.95;2.88;;;13.00;99.90;;;;;;4886787;29;20135;-86
2022/10/08 00:27:39;;;;;;;11.40;2.85;;;13.10;99.90;;;;;;4882713;29;20045;-86
2022/10/08 00:30:05;;;;;;;7.70;3.22;;;13.00;99.90;;;;;;4881813;29;20513;-86
2022/10/08 00:32:31;;;;;;;10.88;3.33;;;13.00;99.90;;;;;;4866713;29;20048;-86
2022/10/08 00:34:56;;;;;;;11.23;3.17;;;13.00;99.90;;;;;;4862313;29;20463;-85
2022/10/08 00:37:25;;;;;;;7.90;2.83;;;12.90;99.90;;;;;;4885372;29;20071;-86
2022/10/08 00:39:51;;;;;;;9.85;3.00;;;13.00;99.90;;;;;;4871887;29;20212;-86
2022/10/08 00:42:20;;;;;;;8.93;3.10;;;13.00;99.90;;;;;;4882268;29;20033;-86
2022/10/08 00:44:46;;;;;;;9.80;2.88;;;13.00;99.90;;;;;;4850404;29;20040;-86
2022/10/08 00:47:25;;;;;;;6.35;2.50;;;13.00;99.90;;;;;;4853378;29;20104;-86
2022/10/08 00:49:55;;;;;;;5.18;2.17;;;13.00;99.90;;;;;;4877648;29;20126;-85
2022/10/08 00:52:23;;;;;;;6.35;2.42;;;13.10;99.90;;;;;;4887727;29;20446;-86
2022/10/08 00:54:50;;;;;;;5.22;2.40;;;12.90;99.90;;;;;;4870766;29;20266;-86
2022/10/08 00:57:17;;;;;;;8.15;2.60;;;12.90;99.90;;;;;;4865256;29;20107;-86
2022/10/08 00:59:43;;;;;;;5.60;2.60;;;12.90;99.90;;;;;;4865232;29;20389;-86
2022/10/08 01:02:09;;;;;;;11.23;3.10;;;13.00;99.90;;;;;;4868213;29;20060;-87
2022/10/08 01:04:37;;;;;;;9.43;2.63;;;13.00;99.90;;;;;;4863586;29;20446;-87
2022/10/08 01:07:27;;;;;;;9.13;2.80;;;13.00;99.90;;;;;;4862202;29;20140;-86
2022/10/08 01:10:19;;;;;;;7.07;2.40;;;13.00;99.90;;;;;;4868219;29;20048;-86
2022/10/08 01:13:08;;;;;;;9.10;2.70;;;13.00;99.90;;;;;;4881984;29;20448;-85
2022/10/08 01:15:54;;;;;;;9.93;2.45;;;12.90;99.90;;;;;;4860999;29;20780;-86
2022/10/08 01:18:53;;;;;;;8.20;2.30;;;12.90;99.90;;;;;;4877034;29;20108;-86
2022/10/08 01:21:42;;;;;;;4.93;2.38;;;12.90;99.90;;;;;;4879985;29;20199;-86
2022/10/08 01:24:20;;;;;;;6.82;2.13;;;12.70;99.90;;;;;;4885444;29;20064;-87
2022/10/08 01:26:54;;;;;;;6.97;2.38;;;12.70;99.90;;;;;;4870017;29;20053;-86
2022/10/08 01:29:23;;;;;;;7.00;2.25;;;12.90;99.90;;;;;;4868589;29;20512;-87
2022/10/08 01:31:57;;;;;;;5.72;2.42;;;12.70;99.90;;;;;;4895978;29;20044;-86
2022/10/08 01:34:26;;;;;;;5.65;2.33;;;12.70;99.90;;;;;;4888980;29;20044;-86
2022/10/08 01:36:54;;;;;;;7.30;2.22;;;12.80;99.90;;;;;;4881334;29;20059;-86
2022/10/08 01:39:26;;;;;;;6.60;1.90;;;12.60;99.90;;;;;;4896012;29;20045;-86
2022/10/08 01:41:57;;;;;;;5.85;1.88;;;12.60;99.90;;;;;;4883256;29;20045;-86
2022/10/08 01:44:46;;;;;;;6.60;2.00;;;12.80;99.90;;;;;;4882285;29;20157;-86
2022/10/08 01:47:17;;;;;;;5.10;1.98;;;12.70;99.90;;;;;;4881768;29;20101;-86
2022/10/08 01:49:51;;;;;;;5.35;1.90;;;12.50;99.90;;;;;;4865970;29;20489;-86
2022/10/08 01:52:24;;;;;;;5.45;1.73;;;12.70;99.90;;;;;;4867588;29;20049;-87
2022/10/08 01:54:53;;;;;;;7.95;2.17;;;12.60;99.90;;;;;;4887046;29;20041;-86
2022/10/08 01:57:20;;;;;;;3.65;1.75;;;12.50;99.90;;;;;;4865171;29;20056;-86
2022/10/08 01:59:53;;;;;;;5.80;1.98;;;12.30;99.90;;;;;;4894439;29;20061;-86
2022/10/08 02:02:24;;;;;;;4.85;1.60;;;12.20;99.90;;;;;;4882565;29;20117;-86
2022/10/08 02:04:52;;;;;;;7.35;2.03;;;12.20;99.90;;;;;;4884800;29;20033;-86
2022/10/08 02:07:21;;;;;;;4.28;1.67;;;12.30;99.90;;;;;;4835258;29;20167;-86
2022/10/08 02:09:51;;;;;;;5.32;1.50;;;12.10;99.90;;;;;;4854627;29;20086;-86
2022/10/08 02:12:17;;;;;;;7.40;1.98;;;12.00;99.90;;;;;;4870434;29;20055;-86
2022/10/08 02:14:47;;;;;;;6.68;1.98;;;12.10;99.90;;;;;;4879252;29;20164;-86
2022/10/08 02:17:25;;;;;;;7.30;1.75;;;12.10;99.90;;;;;;4880609;29;20511;-86
2022/10/08 02:20:15;;;;;;;5.50;1.73;;;11.90;99.90;;;;;;4863161;29;20483;-86
2022/10/08 02:22:59;;;;;;;5.95;1.77;;;11.70;99.90;;;;;;4880517;29;20464;-86
2022/10/08 02:25:36;;;;;;;3.53;1.75;;;11.70;99.90;;;;;;4882093;29;20128;-86
2022/10/08 02:28:11;;;;;;;4.03;1.75;;;11.80;99.90;;;;;;4882312;29;20048;-87
2022/10/08 02:30:51;;;;;;;4.65;1.90;;;11.60;99.90;;;;;;4865334;29;20438;-86
2022/10/08 02:33:53;;;;;;;4.05;1.90;;;11.60;99.90;;;;;;4899309;29;20536;-86
2022/10/08 02:36:25;;;;;;;6.05;2.13;;;11.70;99.90;;;;;;4838095;29;20056;-86
2022/10/08 02:38:57;;;;;;;9.27;2.33;;;11.40;99.90;;;;;;4873070;29;20064;-86
2022/10/08 02:41:29;;;;;;;7.20;2.05;;;11.50;99.90;;;;;;4900662;29;20111;-86
2022/10/08 02:43:58;;;;;;;4.78;2.20;;;11.40;99.90;;;;;;4874953;29;20072;-86
2022/10/08 02:46:27;;;;;;;7.32;2.47;;;11.50;99.90;;;;;;4882859;29;20484;-86
2022/10/08 02:49:12;;;;;;;5.90;2.30;;;11.60;99.90;;;;;;4883840;29;20065;-86
2022/10/08 02:51:40;;;;;;;5.95;2.72;;;11.60;99.90;;;;;;4869069;29;20041;-86
2022/10/08 02:54:07;;;;;;;6.18;2.10;;;11.30;99.90;;;;;;4866996;29;20045;-86
2022/10/08 02:56:44;;;;;;;5.85;2.20;;;11.40;99.90;;;;;;4885992;29;20044;-86
2022/10/08 02:59:10;;;;;;;7.82;2.60;;;11.40;99.90;;;;;;4869983;29;20051;-86
2022/10/08 03:01:39;;;;;;;5.78;2.95;;;11.40;99.90;;;;;;4874411;29;20241;-86
2022/10/08 03:04:26;;;;;;;5.55;2.60;;;11.30;99.90;;;;;;4882075;29;20511;-86
2022/10/08 03:06:52;;;;;;;7.45;2.97;;;11.20;99.90;;;;;;4886697;29;20128;-86
2022/10/08 03:09:20;;;;;;;7.18;2.90;;;11.10;99.90;;;;;;4882800;29;20592;-86
2022/10/08 03:11:47;;;;;;;8.65;2.75;;;11.20;99.90;;;;;;4883800;29;20292;-86
2022/10/08 03:14:15;;;;;;;7.35;2.97;;;11.30;99.90;;;;;;4879875;29;20062;-86
2022/10/08 03:16:43;;;;;;;5.82;2.22;;;11.20;99.90;;;;;;4890146;29;20051;-86
2022/10/08 03:19:11;;;;;;;6.47;3.35;;;11.20;99.90;;;;;;4873541;29;20048;-86
2022/10/08 03:21:38;;;;;;;9.15;3.28;;;11.40;99.90;;;;;;4868279;29;20466;-85
2022/10/08 03:24:05;;;;;;;8.25;3.38;;;11.40;99.90;;;;;;4857378;29;20044;-85
2022/10/08 03:26:31;;;;;;;6.90;3.03;;;11.60;99.90;;;;;;4886196;29;20080;-86
2022/10/08 03:29:00;;;;;;;10.98;3.13;;;11.50;99.90;;;;;;4870613;29;20124;-86
2022/10/08 03:31:25;;;;;;;9.40;4.05;;;11.50;99.90;;;;;;4885368;29;20418;-86
2022/10/08 03:33:53;;;;;;;9.05;3.60;;;11.60;99.90;;;;;;4890069;29;20041;-86
2022/10/08 03:36:20;;;;;;;12.20;3.80;;;11.60;99.90;;;;;;4887000;29;20044;-86
2022/10/08 03:38:46;;;;;;;9.02;3.80;;;11.60;99.90;;;;;;4896883;29;20037;-86
2022/10/08 03:41:17;;;;;;;13.02;3.78;;;11.70;99.90;;;;;;4871980;29;20049;-86
2022/10/08 03:43:46;;;;;;;9.70;3.25;;;11.90;99.90;;;;;;4896567;29;20044;-86
2022/10/08 03:46:15;;;;;;;14.43;3.80;;;11.80;99.90;;;;;;4883713;29;20041;-87
2022/10/08 03:48:48;;;;;;;10.30;3.50;;;11.90;99.90;;;;;;4885620;29;20096;-86
2022/10/08 03:51:14;;;;;;;9.82;3.42;;;11.90;99.90;;;;;;4880489;29;20128;-86
2022/10/08 03:53:44;;;;;;;7.72;3.30;;;11.80;99.90;;;;;;4873814;29;20048;-86
2022/10/08 03:56:19;;;;;;;14.25;3.72;;;11.90;99.90;;;;;;4866594;29;20055;-86
2022/10/08 03:58:45;;;;;;;13.32;3.85;;;11.90;99.90;;;;;;4870944;29;20033;-86
2022/10/08 04:01:16;;;;;;;9.52;3.28;;;11.80;99.90;;;;;;4885950;29;20085;-86
2022/10/08 04:03:44;;;;;;;11.73;3.58;;;11.70;99.90;;;;;;4884450;29;20378;-85
2022/10/08 04:06:10;;;;;;;9.25;3.35;;;11.80;99.90;;;;;;4854851;29;20060;-86
2022/10/08 04:08:36;;;;;;;9.35;3.03;;;11.60;99.90;;;;;;4866820;29;20123;-86
2022/10/08 04:11:04;;;;;;;11.63;3.40;;;11.70;99.90;;;;;;4868679;29;20402;-87
2022/10/08 04:13:30;;;;;;;10.10;3.33;;;11.60;99.90;;;;;;4880043;29;20045;-85
2022/10/08 04:16:00;;;;;;;12.27;2.88;;;11.40;99.90;;;;;;4883577;29;20413;-86
2022/10/08 04:18:26;;;;;;;7.65;3.08;;;11.40;99.90;;;;;;4854104;29;20082;-85
2022/10/08 04:20:57;;;;;;;10.05;3.20;;;11.50;99.90;;;;;;4882540;29;20385;-86
2022/10/08 04:23:23;;;;;;;9.70;3.33;;;11.40;99.90;;;;;;4877403;29;20045;-86
2022/10/08 04:25:49;;;;;;;12.85;3.42;;;11.20;99.90;;;;;;4859030;29;20108;-86
2022/10/08 04:28:15;;;;;;;10.75;3.05;;;11.30;99.90;;;;;;4890453;29;20107;-86
2022/10/08 04:30:41;;;;;;;11.93;3.45;;;11.20;99.90;;;;;;4897731;29;20296;-85
2022/10/08 04:33:06;;;;;;;12.80;3.30;;;11.10;99.90;;;;;;4884881;29;20079;-86
2022/10/08 04:35:36;;;;;;;11.57;3.38;;;11.30;99.90;;;;;;4868729;29;20428;-86
2022/10/08 04:38:02;;;;;;;11.68;3.38;;;11.20;99.90;;;;;;4882454;29;20041;-86
2022/10/08 04:40:28;;;;;;;10.95;3.35;;;11.30;99.90;;;;;;4866823;29;20049;-87
2022/10/08 04:42:53;;;;;;;11.40;3.42;;;11.20;99.90;;;;;;4868776;29;20096;-86
2022/10/08 04:45:19;;;;;;;8.73;3.22;;;11.20;99.90;;;;;;4883092;29;20079;-86
2022/10/08 04:47:45;;;;;;;9.63;3.35;;;11.10;99.90;;;;;;4869511;29;20053;-85
2022/10/08 04:50:10;;;;;;;14.57;3.70;;;11.20;99.90;;;;;;4852590;29;20127;-86
2022/10/08 04:52:36;;;;;;;13.25;3.42;;;11.20;99.90;;;;;;4868333;29;20044;-86
2022/10/08 04:55:02;;;;;;;10.25;3.80;;;11.10;99.90;;;;;;4840556;29;20101;-86
2022/10/08 04:57:27;;;;;;;8.93;3.25;;;11.10;99.90;;;;;;4883554;29;20048;-86
2022/10/08 04:59:56;;;;;;;12.82;3.80;;;11.00;99.90;;;;;;4882708;29;20065;-87
2022/10/08 05:02:21;;;;;;;9.23;3.83;;;11.00;99.90;;;;;;4879238;29;20072;-86
2022/10/08 05:04:47;;;;;;;13.68;3.88;;;11.10;99.90;;;;;;4865437;29;20466;-86
2022/10/08 05:07:12;;;;;;;12.18;3.88;;;11.10;99.90;;;;;;4886355;29;20051;-86
2022/10/08 05:09:38;;;;;;;10.50;3.70;;;11.00;99.90;;;;;;4870778;29;20041;-86
2022/10/08 05:12:04;;;;;;;11.50;3.55;;;11.10;99.90;;;;;;4882137;29;20073;-86
2022/10/08 05:14:29;;;;;;;15.27;3.78;;;11.10;99.90;;;;;;4875291;29;20056;-86
2022/10/08 05:16:55;;;;;;;8.63;3.97;;;11.00;99.90;;;;;;4866856;29;20370;-86
2022/10/08 05:19:23;;;;;;;11.35;3.50;;;11.00;99.90;;;;;;4863398;29;20092;-86
2022/10/08 05:21:49;;;;;;;11.10;3.28;;;10.90;99.90;;;;;;4872168;29;20306;-85
2022/10/08 05:24:15;;;;;;;11.65;3.70;;;11.00;99.90;;;;;;4881703;29;20045;-86
2022/10/08 05:26:40;;;;;;;14.05;4.10;;;10.90;99.90;;;;;;4862624;29;20131;-86
2022/10/08 05:29:06;;;;;;;13.18;3.97;;;10.90;99.90;;;;;;4867875;29;20040;-85
2022/10/08 05:31:34;;;;;;;12.95;4.00;;;11.00;99.90;;;;;;4882839;29;20051;-86
2022/10/08 05:34:00;;;;;;;14.48;3.70;;;10.90;99.90;;;;;;4880170;29;20646;-86
2022/10/08 05:36:30;;;;;;;10.77;3.60;;;11.00;99.90;;;;;;4884908;29;20481;-86
2022/10/08 05:38:58;;;;;;;9.98;3.40;;;10.90;99.90;;;;;;4897690;29;20574;-85
2022/10/08 05:41:26;;;;;;;12.50;3.25;;;10.90;99.90;;;;;;4870821;29;20123;-85
2022/10/08 05:43:56;;;;;;;11.02;3.35;;;11.00;99.90;;;;;;4853333;29;20048;-87
2022/10/08 05:46:26;;;;;;;15.52;4.40;;;10.90;99.90;;;;;;4879497;29;20063;-85
2022/10/08 05:48:53;;;;;;;12.57;3.05;;;10.90;99.90;;;;;;4869242;29;20041;-85
2022/10/08 05:51:19;;;;;;;13.88;3.70;;;10.80;99.90;;;;;;4867702;29;20065;-85
2022/10/08 05:53:47;;;;;;;13.73;3.35;;;10.80;99.90;;;;;;4878630;29;20034;-86
2022/10/08 05:56:15;;;;;;;7.38;3.13;;;10.70;99.90;;;;;;4867091;29;20493;-86
2022/10/08 05:58:41;;;;;;;19.27;3.15;;;10.80;99.90;;;;;;4879310;29;20041;-86
2022/10/08 06:01:35;;;;;;;11.10;2.92;;;10.80;99.90;;;;;;4880462;29;20052;-86
2022/10/08 06:04:04;;;;;;;12.73;2.70;;;10.70;99.90;;;;;;4875698;29;20463;-86
2022/10/08 06:06:30;;;;;;;10.18;2.83;;;10.60;99.90;;;;;;4898335;29;20048;-86
2022/10/08 06:09:00;;;;;;;10.25;2.60;;;10.80;99.90;;;;;;4870812;29;20041;-86
2022/10/08 06:11:28;;;;;;;15.82;3.17;;;10.80;99.90;;;;;;4864811;29;20048;-86
2022/10/08 06:13:55;;;;;;;20.58;3.42;;;10.80;99.90;;;;;;4870692;29;20045;-86
2022/10/08 06:16:22;;;;;;;11.55;2.90;;;10.80;99.90;;;;;;4902721;29;20560;-86
2022/10/08 06:18:48;;;;;;;11.18;2.50;;;10.80;99.90;;;;;;4883757;29;20457;-84
2022/10/08 06:21:20;;;;;;;7.60;2.35;;;10.80;99.90;;;;;;4880284;29;20064;-86
2022/10/08 06:23:57;;;;;;;10.38;2.50;;;10.70;99.90;;;;;;4857278;29;20573;-86
2022/10/08 06:26:26;;;;;;;9.95;2.55;;;10.90;99.90;;;;;;4872984;29;20105;-86
2022/10/08 06:28:52;;;;;;;11.30;2.70;;;11.00;99.90;;;;;;4857184;29;20290;-86
2022/10/08 06:31:18;;;;;;;12.45;2.40;;;10.90;99.90;;;;;;4887885;29;20029;-86
2022/10/08 06:33:48;;;;;;;13.05;3.08;;;11.00;99.90;;;;;;4888328;29;20044;-86
2022/10/08 06:36:19;;;;;;;12.05;2.58;;;11.10;99.90;;;;;;4892947;29;20528;-86
2022/10/08 06:38:49;;;;;;;9.75;2.70;;;11.20;99.90;;;;;;4869770;29;20052;-86
2022/10/08 06:41:15;;;;;;;7.70;2.20;;;11.50;99.90;;;;;;4875201;29;20037;-86
2022/10/08 06:43:41;;;;;;;13.32;2.70;;;11.60;99.90;;;;;;4884013;29;20056;-86
2022/10/08 06:46:07;;;;;;;11.35;3.40;;;11.90;99.90;;;;;;4897969;29;20053;-87
2022/10/08 06:48:33;;;;;;;7.45;2.55;;;11.80;99.90;;;;;;4872102;29;20378;-86
2022/10/08 06:51:02;;;;;;;14.07;2.85;;;11.90;99.90;;;;;;4883744;29;20480;-86
2022/10/08 07:01:37;;;;;;;13.63;2.50;;;12.20;99.90;;;;;;4814764;29;20101;-86
2022/10/08 07:05:25;;;;;;;12.25;2.47;;;12.20;99.90;;;;;;4750495;30;20067;-86
2022/10/08 07:08:00;;;;;;;9.30;2.00;;;12.30;99.90;;;;;;4776004;30;20385;-87
2022/10/08 07:10:40;;;;;;;12.30;2.15;;;12.30;99.90;;;;;;4760197;29;20433;-86
2022/10/08 07:13:06;;;;;;;9.50;2.17;;;12.30;99.90;;;;;;4802775;29;20049;-87
2022/10/08 07:16:11;;;;;;;7.63;2.15;;;12.10;99.90;;;;;;4800304;29;20483;-87
2022/10/08 07:19:00;;;;;;;11.13;2.08;;;12.00;99.90;;;;;;4819317;29;20374;-87
2022/10/08 07:21:34;;;;;;;8.48;2.17;;;12.00;99.90;;;;;;4860535;29;20484;-87
2022/10/08 07:24:16;;;;;;;8.82;1.95;;;11.90;99.90;;;;;;4873019;29;20045;-86
2022/10/08 07:34:11;;;;;;;6.93;2.25;;;12.00;99.90;;;;;;4828393;29;20046;-87
2022/10/08 07:37:28;;;;;;;9.75;2.20;;;12.00;99.90;;;;;;4823280;29;20190;-87
2022/10/08 07:40:34;;;;;;;7.55;1.95;;;12.00;99.90;;;;;;4758279;30;20051;-86
2022/10/08 07:43:21;;;;;;;10.98;2.30;;;12.20;99.90;;;;;;4756166;29;20604;-85
2022/10/08 07:46:23;;;;;;;10.88;2.13;;;12.20;99.90;;;;;;4772190;29;20577;-86
2022/10/08 07:49:10;;;;;;;13.93;2.65;;;12.30;99.90;;;;;;4745304;29;20051;-86
2022/10/08 07:55:15;;;;;;;8.10;1.60;;;12.30;99.90;;;;;;4826061;29;20077;-85
2022/10/08 07:58:13;;;;;;;7.47;2.38;;;12.30;99.90;;;;;;4802141;29;20046;-86
2022/10/08 08:01:40;;;;;;;10.60;2.45;;;12.40;99.90;;;;;;4776306;29;20067;-86
2022/10/08 08:08:17;;;;;;;5.25;1.88;;;12.50;99.90;;;;;;4794980;29;20211;-86
2022/10/08 08:14:48;;;;;;;8.88;1.95;;;12.90;99.90;;;;;;4832167;29;20056;-87
2022/10/08 08:17:17;;;;;;;10.30;2.30;;;12.80;99.90;;;;;;4826041;29;20082;-87
2022/10/08 08:20:05;;;;;;;8.48;2.28;;;13.10;99.90;;;;;;4842653;29;20209;-86
2022/10/08 08:22:31;;;;;;;10.20;2.20;;;13.20;99.90;;;;;;4868231;29;20446;-86
2022/10/08 08:25:27;;;;;;;8.60;2.88;;;13.30;99.90;;;;;;4865869;29;20454;-86
2022/10/08 08:28:38;;;;;;;5.93;2.00;;;13.30;99.90;;;;;;4860664;29;20060;-86
2022/10/08 08:31:36;;;;;;;7.75;1.73;;;13.40;99.90;;;;;;4851670;29;20490;-86
2022/10/08 08:34:16;;;;;;;8.27;1.90;;;13.50;99.90;;;;;;4855870;29;20041;-86
2022/10/08 08:37:08;;;;;;;8.82;1.70;;;13.50;99.90;;;;;;4868738;29;20222;-85
2022/10/08 08:39:36;;;;;;;6.18;1.33;;;13.50;99.90;;;;;;4848770;29;20445;-87
2022/10/08 08:42:23;;;;;;;8.55;1.73;;;13.60;99.90;;;;;;4866404;29;20086;-86
2022/10/08 08:48:35;;;;;;;7.63;1.85;;;13.70;99.90;;;;;;4814129;29;20054;-85
2022/10/08 08:51:20;;;;;;;7.70;1.38;;;13.80;99.90;;;;;;4820719;29;20045;-86
2022/10/08 08:53:49;;;;;;;7.55;2.03;;;13.80;99.90;;;;;;4831840;29;20506;-86
2022/10/08 08:56:39;;;;;;;4.38;1.20;;;13.90;99.90;;;;;;4873550;29;20175;-86
2022/10/08 08:59:54;;;;;;;9.60;1.60;;;14.00;99.90;;;;;;4882955;29;20284;-87
2022/10/08 09:03:01;;;;;;;10.02;1.60;;;14.10;99.90;;;;;;4892174;29;20061;-86
2022/10/08 09:05:55;;;;;;;7.47;2.28;;;14.10;99.90;;;;;;4889610;29;20083;-86
2022/10/08 09:09:00;;;;;;;6.35;1.10;;;14.20;99.90;;;;;;4871313;29;20045;-86
2022/10/08 09:11:55;;;;;;;8.30;1.40;;;14.30;99.90;;;;;;4891882;29;20091;-87
2022/10/08 09:15:18;;;;;;;10.15;1.25;;;14.30;99.90;;;;;;4859096;29;20332;-86
2022/10/08 09:18:13;;;;;;;8.55;1.77;;;14.40;99.90;;;;;;4869796;29;20059;-86
2022/10/08 09:21:08;;;;;;;5.83;1.47;;;14.60;99.90;;;;;;4874843;29;20053;-86
2022/10/08 09:24:03;;;;;;;8.52;1.27;;;14.70;99.90;;;;;;4856113;29;20187;-86
2022/10/08 09:26:41;;;;;;;7.40;1.45;;;14.90;99.90;;;;;;4875921;29;20405;-85
2022/10/08 09:29:37;;;;;;;4.28;1.17;;;15.10;99.90;;;;;;4872652;29;20368;-86
2022/10/08 09:32:28;;;;;;;8.18;1.25;;;14.90;1.00;;;;;;4838579;29;20188;-85
2022/10/08 09:35:16;;;;;;;3.13;1.00;;;14.90;26.10;;;;;;4890382;29;20151;-87
2022/10/08 09:37:51;;;;;;;4.45;1.00;;;14.70;1.00;;;;;;4896036;29;20065;-86
2022/10/08 09:40:33;;;;;;;7.25;1.27;;;15.00;99.90;;;;;;4876692;29;20076;-86
2022/10/08 09:43:37;;;;;;;4.05;1.17;;;15.30;1.00;;;;;;4890481;29;20073;-86
2022/10/08 09:46:37;;;;;;;3.80;1.08;;;15.20;99.90;;;;;;4858576;29;20072;-86
2022/10/08 09:49:28;;;;;;;9.15;1.63;;;15.50;99.90;;;;;;4880516;29;20052;-86
2022/10/08 09:56:04;;;;;;;8.50;1.40;;;15.50;99.90;;;;;;4863290;29;20126;-87
2022/10/08 09:58:42;;;;;;;7.88;1.30;;;16.00;99.90;;;;;;4875857;29;20059;-86
2022/10/08 10:01:16;;;;;;;10.70;1.40;;;15.80;81.50;;;;;;4887174;29;20104;-86
2022/10/08 10:04:12;;;;;;;5.65;1.20;;;15.80;99.90;;;;;;4905736;29;20521;-86
2022/10/08 10:07:00;;;;;;;7.13;1.20;;;15.60;99.90;;;;;;4862387;29;20041;-86
2022/10/08 10:10:19;;;;;;;4.10;1.10;;;15.90;11.70;;;;;;4845070;29;20402;-86
2022/10/08 10:13:09;;;;;;;5.55;1.02;;;16.10;99.90;;;;;;4872125;29;20045;-86
2022/10/08 10:16:06;;;;;;;8.38;1.90;;;16.10;99.90;;;;;;4850197;29;20049;-87
2022/10/08 10:22:05;;;;;;;6.85;2.10;;;15.00;99.90;;;;;;4891124;29;20132;-87
2022/10/08 10:25:01;;;;;;;5.90;1.10;;;14.90;1.00;;;;;;4877671;29;20516;-86
2022/10/08 10:28:00;;;;;;;8.55;1.02;;;14.90;99.90;;;;;;4863413;29;20461;-85
2022/10/08 10:30:39;;;;;;;6.10;1.40;;;14.70;99.90;;;;;;4884004;29;20080;-86
2022/10/08 10:33:51;;;;;;;5.93;1.20;;;14.90;99.90;;;;;;4878498;29;20056;-85
2022/10/08 10:37:08;;;;;;;9.05;1.33;;;15.10;46.40;;;;;;4888490;29;20064;-86
2022/10/08 10:39:51;;;;;;;5.03;1.00;;;15.30;99.90;;;;;;4867059;29;20052;-86
2022/10/08 10:42:29;;;;;;;6.38;1.38;;;15.30;99.90;;;;;;4891761;29;20435;-86
2022/10/08 10:48:29;;;;;;;9.00;1.20;;;15.20;99.90;;;;;;4862876;29;20565;-85
2022/10/08 10:54:13;;;;;;;10.60;1.70;;;14.80;1.00;;;;;;4857123;29;20148;-84
2022/10/08 10:57:01;;;;;;;6.78;1.33;;;15.10;1.00;;;;;;4896985;29;20575;-86
2022/10/08 11:00:02;;;;;;;9.10;1.13;;;15.30;1.00;;;;;;4901179;29;20131;-86
2022/10/08 11:10:27;;;;;;;3.17;0.88;;;15.40;1.00;;;;;;4868771;29;20049;-86
2022/10/08 11:13:36;;;;;;;4.80;1.17;;;15.40;99.90;;;;;;4851776;29;20044;-85
2022/10/08 11:16:52;;;;;;;6.60;1.33;;;15.20;99.90;;;;;;4878810;29;20041;-86
2022/10/08 11:20:00;;;;;;;7.53;1.30;;;15.80;99.90;;;;;;4877743;29;20127;-85
2022/10/08 11:23:20;;;;;;;6.20;0.93;;;15.80;99.90;;;;;;4878302;29;20041;-86
2022/10/08 11:30:17;;;;;;;5.30;1.20;;;15.90;99.90;;;;;;4838170;29;20178;-85
2022/10/08 11:32:53;;;;;;;9.73;1.30;;;16.10;1.00;;;;;;4850722;29;20045;-86
2022/10/08 11:35:37;;;;;;;7.05;1.30;;;16.00;99.90;;;;;;4887040;29;20127;-86
2022/10/08 11:38:43;;;;;;;7.68;1.60;;;16.40;99.90;;;;;;4895013;29;20390;-86
2022/10/08 11:41:25;;;;;;;9.23;1.90;;;16.50;1.00;;;;;;4873315;29;20045;-86
2022/10/08 11:43:54;;;;;;;5.68;1.13;;;16.70;99.90;;;;;;4855888;29;20097;-86
2022/10/08 11:46:27;;;;;;;5.10;1.20;;;16.70;99.90;;;;;;4900992;29;20168;-85
2022/10/08 11:48:55;;;;;;;6.80;1.20;;;16.80;99.90;;;;;;4889121;29;20413;-86
2022/10/08 11:51:21;;;;;;;9.13;2.05;;;17.00;99.90;;;;;;4856338;29;20083;-86
2022/10/08 11:54:13;;;;;;;10.07;1.45;;;16.90;99.90;;;;;;4873917;29;20229;-85
2022/10/08 11:56:43;;;;;;;6.90;1.30;;;16.70;99.90;;;;;;4858490;29;20040;-85
2022/10/08 11:59:24;;;;;;;8.20;1.25;;;17.10;99.90;;;;;;4881607;29;20041;-85
2022/10/08 12:01:53;;;;;;;6.75;1.30;;;16.90;1.00;;;;;;4863779;29;20702;-86
2022/10/08 12:04:26;;;;;;;7.90;1.60;;;16.80;99.90;;;;;;4857659;29;20049;-86
2022/10/08 12:07:20;;;;;;;7.53;1.60;;;17.00;99.90;;;;;;4859114;29;20516;-86
2022/10/08 12:10:13;;;;;;;8.75;1.75;;;17.30;1.00;;;;;;4881478;29;20052;-87
2022/10/08 12:12:48;;;;;;;7.97;1.70;;;16.60;99.90;;;;;;4885570;29;20036;-88
2022/10/08 12:15:23;;;;;;;7.18;1.60;;;17.20;1.00;;;;;;4885216;29;20132;-87
2022/10/08 12:17:59;;;;;;;8.65;1.30;;;17.10;1.00;;;;;;4884142;29;20061;-87
2022/10/08 12:20:33;;;;;;;2.78;1.02;;;16.60;99.90;;;;;;4882157;29;20052;-86
2022/10/08 12:23:06;;;;;;;8.80;1.60;;;15.70;1.00;;;;;;4870752;29;20478;-85
2022/10/08 12:26:07;;;;;;;4.18;0.90;;;15.20;1.00;;;;;;4867951;29;20103;-86
2022/10/08 12:28:36;;;;;;;8.40;1.33;;;15.10;1.00;;;;;;4867702;29;20100;-88
2022/10/08 12:31:27;;;;;;;5.40;1.25;;;15.10;9.90;;;;;;4859147;29;20055;-87
2022/10/08 12:33:56;;;;;;;5.85;1.50;;;15.10;99.90;;;;;;4884521;29;20179;-88
2022/10/08 12:36:33;;;;;;;8.63;1.90;;;15.50;99.90;;;;;;4871576;29;20144;-86
2022/10/08 12:39:11;;;;;;;8.82;1.50;;;15.40;99.90;;;;;;4873371;29;20468;-87
2022/10/08 12:42:10;;;;;;;6.18;1.60;;;15.20;99.90;;;;;;4886020;29;20048;-87
2022/10/08 12:44:52;;;;;;;7.70;1.92;;;15.20;99.90;;;;;;4835566;29;20063;-87
2022/10/08 12:47:46;;;;;;;7.60;1.52;;;15.90;20.50;;;;;;4853306;29;20055;-87
2022/10/08 12:50:14;;;;;;;12.45;1.42;;;16.70;1.00;;;;;;4862389;29;20044;-86
2022/10/08 12:52:40;;;;;;;8.77;1.17;;;16.30;1.00;;;;;;4866491;29;20462;-86
2022/10/08 12:55:14;;;;;;;4.43;1.42;;;15.90;1.00;;;;;;4864786;29;20073;-86
2022/10/08 12:57:41;;;;;;;9.50;1.50;;;16.10;99.90;;;;;;4861476;29;20255;-87
2022/10/08 13:00:29;;;;;;;10.40;1.40;;;16.20;1.00;;;;;;4848808;29;20845;-87
2022/10/08 13:03:11;;;;;;;5.95;1.38;;;16.40;99.90;;;;;;4839365;29;20057;-86
2022/10/08 13:05:39;;;;;;;6.03;1.30;;;16.90;1.00;;;;;;4861907;29;20112;-85
2022/10/08 13:08:24;;;;;;;3.28;1.00;;;16.80;1.00;;;;;;4878811;29;20053;-87
2022/10/08 13:10:54;;;;;;;3.03;1.25;;;17.00;99.90;;;;;;4851348;29;20041;-87
2022/10/08 13:13:49;;;;;;;4.25;0.93;;;16.40;99.90;;;;;;4875701;29;20125;-86
2022/10/08 13:16:19;;;;;;;3.58;1.25;;;15.20;99.90;;;;;;4855804;29;20053;-87
2022/10/08 13:18:52;;;;;;;3.92;0.80;;;14.60;1.00;;;;;;4850836;29;20506;-85
2022/10/08 13:21:30;;;;;;;3.95;1.30;;;14.20;1.00;;;;;;4875924;29;20290;-86
2022/10/08 13:24:02;;;;;;;3.97;0.98;;;14.30;99.90;;;;;;4853482;29;20041;-85
2022/10/08 13:26:36;;;;;;;3.13;0.90;;;14.30;99.90;;;;;;4864568;29;20033;-86
2022/10/08 13:29:20;;;;;;;2.42;0.90;;;14.70;99.90;;;;;;4847160;29;20076;-86
2022/10/08 13:32:12;;;;;;;2.38;0.65;;;15.10;99.90;;;;;;4878330;29;20301;-86
2022/10/08 13:34:38;;;;;;;3.78;0.70;;;15.60;1.00;;;;;;4867853;29;20195;-86
2022/10/08 13:37:08;;;;;;;4.15;0.77;;;16.00;1.00;;;;;;4847015;29;20067;-87
2022/10/08 13:39:38;;;;;;;3.50;0.98;;;15.50;99.90;;;;;;4864717;29;20067;-86
2022/10/08 13:42:08;;;;;;;4.28;0.95;;;15.30;99.90;;;;;;4852981;29;20069;-86
2022/10/08 13:44:37;;;;;;;5.95;1.25;;;15.70;1.00;;;;;;4861830;29;20547;-85
2022/10/08 13:47:03;;;;;;;5.43;0.70;;;15.70;99.90;;;;;;4880793;29;20132;-86
2022/10/08 13:49:29;;;;;;;1.35;0.57;;;15.20;99.90;;;;;;4849698;29;20084;-86
2022/10/08 13:51:57;;;;;;;2.95;0.63;;;14.80;99.90;;;;;;4864996;29;20483;-86
2022/10/08 13:54:27;;;;;;;3.55;0.93;;;14.70;99.90;;;;;;4866495;29;20049;-86
2022/10/08 13:56:53;;;;;;;4.20;0.90;;;16.40;99.90;;;;;;4850238;29;20480;-86
2022/10/08 13:59:19;;;;;;;4.72;0.98;;;17.30;1.00;;;;;;4856369;29;20463;-86
2022/10/08 14:01:46;;;;;;;3.30;0.82;;;17.60;99.90;;;;;;4889713;29;20476;-86
2022/10/08 14:04:13;;;;;;;5.68;1.52;;;17.80;1.00;;;;;;4882207;29;20888;-86
2022/10/08 14:06:40;;;;;;;5.03;1.30;;;18.50;99.90;;;;;;4871842;29;20073;-86
2022/10/08 14:09:11;;;;;;;6.82;1.17;;;19.30;99.90;;;;;;4883141;29;20144;-85
2022/10/08 14:11:40;;;;;;;5.05;1.13;;;19.10;99.90;;;;;;4866475;29;20419;-87
2022/10/08 14:14:05;;;;;;;7.63;1.13;;;19.40;99.90;;;;;;4879037;29;20464;-86
2022/10/08 14:16:31;;;;;;;4.35;1.17;;;19.60;99.90;;;;;;4898834;29;20092;-86
2022/10/08 14:18:57;;;;;;;5.82;1.25;;;20.30;99.90;;;;;;4895245;29;20052;-87
2022/10/08 14:21:22;;;;;;;8.68;1.58;;;20.50;99.90;;;;;;4844886;29;20045;-86
2022/10/08 14:23:48;;;;;;;6.65;1.30;;;19.70;99.90;;;;;;4876809;29;20045;-87
2022/10/08 14:26:14;;;;;;;6.72;1.85;;;20.60;99.90;;;;;;4883988;29;20041;-86
2022/10/08 14:28:39;;;;;;;5.03;1.50;;;18.10;99.90;;;;;;4883894;29;20053;-87